sensor_id;sensor_type;location;lat;lon;timestamp;P1;durP1;ratioP1;P2;durP2;ratioP2
69569;SDS011;56781;42.292;23.146;2023-09-18T00:00:44;22.33;;;11.37;;
69569;SDS011;56781;42.292;23.146;2023-09-18T00:03:18;21.85;;;11.70;;
69569;SDS011;56781;42.292;23.146;2023-09-18T00:05:47;21.88;;;12.73;;
69569;SDS011;56781;42.292;23.146;2023-09-18T00:08:15;20.90;;;11.35;;
69569;SDS011;56781;42.292;23.146;2023-09-18T00:10:46;20.27;;;11.20;;
69569;SDS011;56781;42.292;23.146;2023-09-18T00:13:19;19.90;;;10.83;;
69569;SDS011;56781;42.292;23.146;2023-09-18T00:15:47;23.08;;;11.82;;
69569;SDS011;56781;42.292;23.146;2023-09-18T00:18:15;20.20;;;11.15;;
69569;SDS011;56781;42.292;23.146;2023-09-18T00:20:42;21.08;;;11.80;;
69569;SDS011;56781;42.292;23.146;2023-09-18T00:23:10;23.95;;;11.63;;
69569;SDS011;56781;42.292;23.146;2023-09-18T00:25:37;17.33;;;9.87;;
69569;SDS011;56781;42.292;23.146;2023-09-18T00:28:07;18.30;;;10.07;;
69569;SDS011;56781;42.292;23.146;2023-09-18T00:30:38;18.10;;;9.55;;
69569;SDS011;56781;42.292;23.146;2023-09-18T00:33:13;18.00;;;9.73;;
69569;SDS011;56781;42.292;23.146;2023-09-18T00:35:44;20.88;;;10.38;;
69569;SDS011;56781;42.292;23.146;2023-09-18T00:38:12;20.57;;;11.27;;
69569;SDS011;56781;42.292;23.146;2023-09-18T00:40:39;22.95;;;11.90;;
69569;SDS011;56781;42.292;23.146;2023-09-18T00:43:07;20.63;;;10.93;;
69569;SDS011;56781;42.292;23.146;2023-09-18T00:45:38;25.48;;;12.50;;
69569;SDS011;56781;42.292;23.146;2023-09-18T00:48:08;23.70;;;12.02;;
69569;SDS011;56781;42.292;23.146;2023-09-18T00:50:36;28.53;;;12.30;;
69569;SDS011;56781;42.292;23.146;2023-09-18T00:53:04;24.55;;;12.05;;
69569;SDS011;56781;42.292;23.146;2023-09-18T00:55:36;22.25;;;12.05;;
69569;SDS011;56781;42.292;23.146;2023-09-18T00:58:06;21.25;;;11.75;;
69569;SDS011;56781;42.292;23.146;2023-09-18T01:00:34;22.20;;;11.18;;
69569;SDS011;56781;42.292;23.146;2023-09-18T01:03:01;20.43;;;10.47;;
69569;SDS011;56781;42.292;23.146;2023-09-18T01:05:33;20.60;;;10.43;;
69569;SDS011;56781;42.292;23.146;2023-09-18T01:08:00;19.85;;;10.77;;
69569;SDS011;56781;42.292;23.146;2023-09-18T01:10:29;23.85;;;11.82;;
69569;SDS011;56781;42.292;23.146;2023-09-18T01:15:32;23.47;;;11.70;;
69569;SDS011;56781;42.292;23.146;2023-09-18T01:18:08;23.80;;;11.70;;
69569;SDS011;56781;42.292;23.146;2023-09-18T01:20:36;19.00;;;10.70;;
69569;SDS011;56781;42.292;23.146;2023-09-18T01:23:03;20.60;;;10.45;;
69569;SDS011;56781;42.292;23.146;2023-09-18T01:25:31;22.10;;;10.75;;
69569;SDS011;56781;42.292;23.146;2023-09-18T01:28:00;21.80;;;11.27;;
69569;SDS011;56781;42.292;23.146;2023-09-18T01:30:27;22.80;;;10.73;;
69569;SDS011;56781;42.292;23.146;2023-09-18T01:32:54;22.38;;;11.13;;
69569;SDS011;56781;42.292;23.146;2023-09-18T01:35:24;20.05;;;10.07;;
69569;SDS011;56781;42.292;23.146;2023-09-18T01:37:56;20.58;;;10.73;;
69569;SDS011;56781;42.292;23.146;2023-09-18T01:40:26;17.67;;;10.00;;
69569;SDS011;56781;42.292;23.146;2023-09-18T01:42:53;21.70;;;10.20;;
69569;SDS011;56781;42.292;23.146;2023-09-18T01:45:21;23.50;;;10.63;;
69569;SDS011;56781;42.292;23.146;2023-09-18T01:47:48;19.30;;;10.43;;
69569;SDS011;56781;42.292;23.146;2023-09-18T01:50:15;19.58;;;10.00;;
69569;SDS011;56781;42.292;23.146;2023-09-18T01:52:42;17.33;;;9.63;;
69569;SDS011;56781;42.292;23.146;2023-09-18T01:55:10;20.13;;;10.90;;
69569;SDS011;56781;42.292;23.146;2023-09-18T01:57:37;17.30;;;10.00;;
69569;SDS011;56781;42.292;23.146;2023-09-18T02:00:05;17.25;;;10.00;;
69569;SDS011;56781;42.292;23.146;2023-09-18T02:02:36;22.13;;;10.80;;
69569;SDS011;56781;42.292;23.146;2023-09-18T02:05:23;20.87;;;11.17;;
69569;SDS011;56781;42.292;23.146;2023-09-18T02:07:51;19.95;;;10.20;;
69569;SDS011;56781;42.292;23.146;2023-09-18T02:10:19;19.55;;;10.57;;
69569;SDS011;56781;42.292;23.146;2023-09-18T02:12:46;19.95;;;10.30;;
69569;SDS011;56781;42.292;23.146;2023-09-18T02:15:14;20.08;;;10.20;;
69569;SDS011;56781;42.292;23.146;2023-09-18T02:17:43;18.53;;;10.40;;
69569;SDS011;56781;42.292;23.146;2023-09-18T02:20:11;18.95;;;9.65;;
69569;SDS011;56781;42.292;23.146;2023-09-18T02:22:38;18.35;;;9.95;;
69569;SDS011;56781;42.292;23.146;2023-09-18T02:25:08;20.77;;;9.45;;
69569;SDS011;56781;42.292;23.146;2023-09-18T02:27:35;17.65;;;9.57;;
69569;SDS011;56781;42.292;23.146;2023-09-18T02:30:03;21.10;;;10.03;;
69569;SDS011;56781;42.292;23.146;2023-09-18T02:32:30;22.45;;;11.25;;
69569;SDS011;56781;42.292;23.146;2023-09-18T02:34:59;24.30;;;11.52;;
69569;SDS011;56781;42.292;23.146;2023-09-18T02:37:27;23.90;;;11.05;;
69569;SDS011;56781;42.292;23.146;2023-09-18T02:39:55;21.67;;;11.10;;
69569;SDS011;56781;42.292;23.146;2023-09-18T02:42:22;21.83;;;10.67;;
69569;SDS011;56781;42.292;23.146;2023-09-18T02:44:50;24.15;;;11.55;;
69569;SDS011;56781;42.292;23.146;2023-09-18T02:47:17;27.77;;;12.65;;
69569;SDS011;56781;42.292;23.146;2023-09-18T02:49:44;20.83;;;10.85;;
69569;SDS011;56781;42.292;23.146;2023-09-18T02:52:12;22.13;;;11.68;;
69569;SDS011;56781;42.292;23.146;2023-09-18T02:54:39;22.43;;;11.07;;
69569;SDS011;56781;42.292;23.146;2023-09-18T02:57:06;24.38;;;11.35;;
69569;SDS011;56781;42.292;23.146;2023-09-18T02:59:33;21.13;;;11.23;;
69569;SDS011;56781;42.292;23.146;2023-09-18T03:02:00;22.80;;;11.15;;
69569;SDS011;56781;42.292;23.146;2023-09-18T03:04:29;22.13;;;11.02;;
69569;SDS011;56781;42.292;23.146;2023-09-18T03:06:57;19.20;;;10.73;;
69569;SDS011;56781;42.292;23.146;2023-09-18T03:09:24;20.85;;;10.95;;
69569;SDS011;56781;42.292;23.146;2023-09-18T03:11:51;24.92;;;11.20;;
69569;SDS011;56781;42.292;23.146;2023-09-18T03:14:18;22.80;;;11.75;;
69569;SDS011;56781;42.292;23.146;2023-09-18T03:16:45;23.83;;;11.25;;
69569;SDS011;56781;42.292;23.146;2023-09-18T03:19:12;23.13;;;11.40;;
69569;SDS011;56781;42.292;23.146;2023-09-18T03:21:40;23.02;;;12.18;;
69569;SDS011;56781;42.292;23.146;2023-09-18T03:24:07;24.42;;;11.90;;
69569;SDS011;56781;42.292;23.146;2023-09-18T03:26:35;21.80;;;10.63;;
69569;SDS011;56781;42.292;23.146;2023-09-18T03:29:02;22.88;;;11.52;;
69569;SDS011;56781;42.292;23.146;2023-09-18T03:31:29;21.17;;;11.03;;
69569;SDS011;56781;42.292;23.146;2023-09-18T03:33:56;22.85;;;11.18;;
69569;SDS011;56781;42.292;23.146;2023-09-18T03:36:24;22.65;;;10.98;;
69569;SDS011;56781;42.292;23.146;2023-09-18T03:38:51;22.23;;;10.65;;
69569;SDS011;56781;42.292;23.146;2023-09-18T03:41:18;21.38;;;10.85;;
69569;SDS011;56781;42.292;23.146;2023-09-18T03:43:46;23.57;;;10.83;;
69569;SDS011;56781;42.292;23.146;2023-09-18T03:46:13;24.45;;;11.15;;
69569;SDS011;56781;42.292;23.146;2023-09-18T03:48:40;21.25;;;11.25;;
69569;SDS011;56781;42.292;23.146;2023-09-18T03:51:07;23.05;;;11.50;;
69569;SDS011;56781;42.292;23.146;2023-09-18T03:53:35;23.27;;;11.60;;
69569;SDS011;56781;42.292;23.146;2023-09-18T03:56:02;22.87;;;11.60;;
69569;SDS011;56781;42.292;23.146;2023-09-18T03:58:30;22.85;;;11.25;;
69569;SDS011;56781;42.292;23.146;2023-09-18T04:01:00;27.38;;;11.43;;
69569;SDS011;56781;42.292;23.146;2023-09-18T04:03:28;22.70;;;11.43;;
69569;SDS011;56781;42.292;23.146;2023-09-18T04:05:56;23.70;;;11.48;;
69569;SDS011;56781;42.292;23.146;2023-09-18T04:08:23;23.93;;;11.50;;
69569;SDS011;56781;42.292;23.146;2023-09-18T04:10:50;22.73;;;11.60;;
69569;SDS011;56781;42.292;23.146;2023-09-18T04:13:17;25.20;;;12.50;;
69569;SDS011;56781;42.292;23.146;2023-09-18T04:15:45;24.73;;;12.90;;
69569;SDS011;56781;42.292;23.146;2023-09-18T04:18:12;23.95;;;11.88;;
69569;SDS011;56781;42.292;23.146;2023-09-18T04:20:39;22.20;;;11.37;;
69569;SDS011;56781;42.292;23.146;2023-09-18T04:23:17;25.25;;;11.82;;
69569;SDS011;56781;42.292;23.146;2023-09-18T04:25:46;21.83;;;11.60;;
69569;SDS011;56781;42.292;23.146;2023-09-18T04:28:14;23.40;;;11.85;;
69569;SDS011;56781;42.292;23.146;2023-09-18T04:30:43;25.23;;;12.38;;
69569;SDS011;56781;42.292;23.146;2023-09-18T04:33:10;26.30;;;12.43;;
69569;SDS011;56781;42.292;23.146;2023-09-18T04:35:39;48.28;;;18.80;;
69569;SDS011;56781;42.292;23.146;2023-09-18T04:38:07;30.98;;;13.95;;
69569;SDS011;56781;42.292;23.146;2023-09-18T04:40:37;25.30;;;11.90;;
69569;SDS011;56781;42.292;23.146;2023-09-18T04:43:07;23.00;;;11.27;;
69569;SDS011;56781;42.292;23.146;2023-09-18T04:45:35;25.97;;;12.53;;
69569;SDS011;56781;42.292;23.146;2023-09-18T04:48:02;26.02;;;12.18;;
69569;SDS011;56781;42.292;23.146;2023-09-18T04:50:32;24.42;;;11.57;;
69569;SDS011;56781;42.292;23.146;2023-09-18T04:53:00;26.35;;;11.98;;
69569;SDS011;56781;42.292;23.146;2023-09-18T04:55:28;25.77;;;13.07;;
69569;SDS011;56781;42.292;23.146;2023-09-18T04:57:55;28.93;;;13.40;;
69569;SDS011;56781;42.292;23.146;2023-09-18T05:00:24;28.45;;;13.60;;
69569;SDS011;56781;42.292;23.146;2023-09-18T05:02:52;27.00;;;12.52;;
69569;SDS011;56781;42.292;23.146;2023-09-18T05:05:20;29.45;;;14.73;;
69569;SDS011;56781;42.292;23.146;2023-09-18T05:07:47;25.42;;;12.25;;
69569;SDS011;56781;42.292;23.146;2023-09-18T05:10:15;25.17;;;11.93;;
69569;SDS011;56781;42.292;23.146;2023-09-18T05:12:42;25.00;;;12.40;;
69569;SDS011;56781;42.292;23.146;2023-09-18T05:15:09;25.15;;;11.90;;
69569;SDS011;56781;42.292;23.146;2023-09-18T05:17:43;23.05;;;10.40;;
69569;SDS011;56781;42.292;23.146;2023-09-18T05:20:19;24.52;;;11.73;;
69569;SDS011;56781;42.292;23.146;2023-09-18T05:22:58;22.77;;;10.60;;
69569;SDS011;56781;42.292;23.146;2023-09-18T05:25:27;23.27;;;11.18;;
69569;SDS011;56781;42.292;23.146;2023-09-18T05:27:59;22.45;;;10.80;;
69569;SDS011;56781;42.292;23.146;2023-09-18T05:30:27;21.25;;;10.15;;
69569;SDS011;56781;42.292;23.146;2023-09-18T05:33:01;19.77;;;10.57;;
69569;SDS011;56781;42.292;23.146;2023-09-18T05:35:33;19.97;;;9.90;;
69569;SDS011;56781;42.292;23.146;2023-09-18T05:38:06;20.13;;;10.02;;
69569;SDS011;56781;42.292;23.146;2023-09-18T05:40:33;19.10;;;10.05;;
69569;SDS011;56781;42.292;23.146;2023-09-18T05:43:01;17.60;;;9.75;;
69569;SDS011;56781;42.292;23.146;2023-09-18T05:45:28;21.40;;;9.73;;
69569;SDS011;56781;42.292;23.146;2023-09-18T05:47:58;19.10;;;9.33;;
69569;SDS011;56781;42.292;23.146;2023-09-18T05:50:31;18.58;;;9.90;;
69569;SDS011;56781;42.292;23.146;2023-09-18T05:53:00;19.52;;;10.05;;
69569;SDS011;56781;42.292;23.146;2023-09-18T05:55:31;18.73;;;9.73;;
69569;SDS011;56781;42.292;23.146;2023-09-18T05:57:58;19.85;;;9.55;;
69569;SDS011;56781;42.292;23.146;2023-09-18T06:00:29;19.33;;;10.10;;
69569;SDS011;56781;42.292;23.146;2023-09-18T06:03:00;17.98;;;9.77;;
69569;SDS011;56781;42.292;23.146;2023-09-18T06:05:28;16.30;;;8.90;;
69569;SDS011;56781;42.292;23.146;2023-09-18T06:07:58;16.45;;;9.63;;
69569;SDS011;56781;42.292;23.146;2023-09-18T06:10:26;16.33;;;9.25;;
69569;SDS011;56781;42.292;23.146;2023-09-18T06:12:53;15.67;;;8.90;;
69569;SDS011;56781;42.292;23.146;2023-09-18T06:15:21;17.05;;;9.38;;
69569;SDS011;56781;42.292;23.146;2023-09-18T06:17:48;14.75;;;8.63;;
69569;SDS011;56781;42.292;23.146;2023-09-18T06:20:15;17.83;;;9.50;;
69569;SDS011;56781;42.292;23.146;2023-09-18T06:22:43;15.40;;;9.00;;
69569;SDS011;56781;42.292;23.146;2023-09-18T06:25:10;16.53;;;9.23;;
69569;SDS011;56781;42.292;23.146;2023-09-18T06:27:38;18.40;;;9.20;;
69569;SDS011;56781;42.292;23.146;2023-09-18T06:30:05;16.67;;;8.68;;
69569;SDS011;56781;42.292;23.146;2023-09-18T06:32:34;17.95;;;8.93;;
69569;SDS011;56781;42.292;23.146;2023-09-18T06:35:02;16.63;;;8.70;;
69569;SDS011;56781;42.292;23.146;2023-09-18T06:37:29;16.47;;;9.17;;
69569;SDS011;56781;42.292;23.146;2023-09-18T06:39:56;16.80;;;9.00;;
69569;SDS011;56781;42.292;23.146;2023-09-18T06:42:24;16.13;;;8.82;;
69569;SDS011;56781;42.292;23.146;2023-09-18T06:44:51;15.00;;;9.10;;
69569;SDS011;56781;42.292;23.146;2023-09-18T06:47:19;14.73;;;8.23;;
69569;SDS011;56781;42.292;23.146;2023-09-18T06:49:46;14.60;;;8.73;;
69569;SDS011;56781;42.292;23.146;2023-09-18T06:52:13;14.65;;;8.07;;
69569;SDS011;56781;42.292;23.146;2023-09-18T06:54:41;14.02;;;8.45;;
69569;SDS011;56781;42.292;23.146;2023-09-18T06:57:08;15.18;;;8.23;;
69569;SDS011;56781;42.292;23.146;2023-09-18T06:59:35;14.00;;;8.27;;
69569;SDS011;56781;42.292;23.146;2023-09-18T07:02:02;15.10;;;8.67;;
69569;SDS011;56781;42.292;23.146;2023-09-18T07:04:30;15.43;;;7.80;;
69569;SDS011;56781;42.292;23.146;2023-09-18T07:06:57;14.13;;;8.43;;
69569;SDS011;56781;42.292;23.146;2023-09-18T07:09:24;15.98;;;9.02;;
69569;SDS011;56781;42.292;23.146;2023-09-18T07:11:52;15.60;;;8.73;;
69569;SDS011;56781;42.292;23.146;2023-09-18T07:14:19;14.27;;;8.23;;
69569;SDS011;56781;42.292;23.146;2023-09-18T07:16:47;15.23;;;8.65;;
69569;SDS011;56781;42.292;23.146;2023-09-18T07:19:14;12.45;;;8.05;;
69569;SDS011;56781;42.292;23.146;2023-09-18T07:21:43;15.23;;;8.30;;
69569;SDS011;56781;42.292;23.146;2023-09-18T07:24:11;15.43;;;8.13;;
69569;SDS011;56781;42.292;23.146;2023-09-18T07:26:47;13.63;;;8.03;;
69569;SDS011;56781;42.292;23.146;2023-09-18T07:29:15;12.60;;;8.15;;
69569;SDS011;56781;42.292;23.146;2023-09-18T07:31:43;13.80;;;8.10;;
69569;SDS011;56781;42.292;23.146;2023-09-18T07:34:10;14.85;;;8.85;;
69569;SDS011;56781;42.292;23.146;2023-09-18T07:36:39;14.25;;;8.23;;
69569;SDS011;56781;42.292;23.146;2023-09-18T07:39:07;15.07;;;9.00;;
69569;SDS011;56781;42.292;23.146;2023-09-18T07:41:34;14.88;;;8.48;;
69569;SDS011;56781;42.292;23.146;2023-09-18T07:44:01;14.35;;;8.80;;
69569;SDS011;56781;42.292;23.146;2023-09-18T07:46:28;17.27;;;7.90;;
69569;SDS011;56781;42.292;23.146;2023-09-18T07:48:55;13.57;;;8.43;;
69569;SDS011;56781;42.292;23.146;2023-09-18T07:51:22;16.10;;;8.97;;
69569;SDS011;56781;42.292;23.146;2023-09-18T07:53:50;15.88;;;9.20;;
69569;SDS011;56781;42.292;23.146;2023-09-18T07:56:17;15.38;;;9.48;;
69569;SDS011;56781;42.292;23.146;2023-09-18T07:58:45;13.90;;;8.95;;
69569;SDS011;56781;42.292;23.146;2023-09-18T08:01:13;17.58;;;9.70;;
69569;SDS011;56781;42.292;23.146;2023-09-18T08:03:42;15.07;;;9.00;;
69569;SDS011;56781;42.292;23.146;2023-09-18T08:06:10;17.60;;;9.50;;
69569;SDS011;56781;42.292;23.146;2023-09-18T08:08:38;16.98;;;9.43;;
69569;SDS011;56781;42.292;23.146;2023-09-18T08:11:09;16.75;;;9.18;;
69569;SDS011;56781;42.292;23.146;2023-09-18T08:13:36;17.60;;;9.93;;
69569;SDS011;56781;42.292;23.146;2023-09-18T08:16:05;19.57;;;10.33;;
69569;SDS011;56781;42.292;23.146;2023-09-18T08:18:33;15.60;;;9.00;;
69569;SDS011;56781;42.292;23.146;2023-09-18T08:21:01;14.93;;;9.15;;
69569;SDS011;56781;42.292;23.146;2023-09-18T08:23:29;16.63;;;9.45;;
69569;SDS011;56781;42.292;23.146;2023-09-18T08:25:56;17.73;;;9.70;;
69569;SDS011;56781;42.292;23.146;2023-09-18T08:28:24;16.07;;;9.47;;
69569;SDS011;56781;42.292;23.146;2023-09-18T08:30:51;17.50;;;10.27;;
69569;SDS011;56781;42.292;23.146;2023-09-18T08:33:18;15.93;;;10.15;;
69569;SDS011;56781;42.292;23.146;2023-09-18T08:35:45;16.08;;;9.85;;
69569;SDS011;56781;42.292;23.146;2023-09-18T08:38:16;17.98;;;10.68;;
69569;SDS011;56781;42.292;23.146;2023-09-18T08:40:43;16.07;;;9.70;;
69569;SDS011;56781;42.292;23.146;2023-09-18T08:43:12;17.45;;;9.77;;
69569;SDS011;56781;42.292;23.146;2023-09-18T08:45:50;16.95;;;9.98;;
69569;SDS011;56781;42.292;23.146;2023-09-18T08:48:20;18.35;;;10.60;;
69569;SDS011;56781;42.292;23.146;2023-09-18T08:50:48;16.73;;;10.30;;
69569;SDS011;56781;42.292;23.146;2023-09-18T08:53:16;18.20;;;10.50;;
69569;SDS011;56781;42.292;23.146;2023-09-18T08:55:43;17.50;;;10.75;;
69569;SDS011;56781;42.292;23.146;2023-09-18T08:58:10;16.80;;;9.82;;
69569;SDS011;56781;42.292;23.146;2023-09-18T09:00:37;17.45;;;10.80;;
69569;SDS011;56781;42.292;23.146;2023-09-18T09:03:05;16.95;;;9.88;;
69569;SDS011;56781;42.292;23.146;2023-09-18T09:05:32;17.17;;;10.13;;
69569;SDS011;56781;42.292;23.146;2023-09-18T09:08:00;16.45;;;9.80;;
69569;SDS011;56781;42.292;23.146;2023-09-18T09:10:28;18.30;;;10.57;;
69569;SDS011;56781;42.292;23.146;2023-09-18T09:12:59;16.83;;;9.48;;
69569;SDS011;56781;42.292;23.146;2023-09-18T09:15:29;16.92;;;10.43;;
69569;SDS011;56781;42.292;23.146;2023-09-18T09:18:03;17.47;;;9.83;;
69569;SDS011;56781;42.292;23.146;2023-09-18T09:20:34;17.45;;;9.23;;
69569;SDS011;56781;42.292;23.146;2023-09-18T09:23:03;17.42;;;9.70;;
69569;SDS011;56781;42.292;23.146;2023-09-18T09:25:32;19.63;;;10.63;;
69569;SDS011;56781;42.292;23.146;2023-09-18T09:28:00;17.25;;;9.88;;
69569;SDS011;56781;42.292;23.146;2023-09-18T09:30:32;15.60;;;9.50;;
69569;SDS011;56781;42.292;23.146;2023-09-18T09:33:00;15.02;;;9.00;;
69569;SDS011;56781;42.292;23.146;2023-09-18T09:35:30;12.95;;;8.10;;
69569;SDS011;56781;42.292;23.146;2023-09-18T09:38:01;13.38;;;7.93;;
69569;SDS011;56781;42.292;23.146;2023-09-18T09:40:35;16.10;;;9.40;;
69569;SDS011;56781;42.292;23.146;2023-09-18T09:43:04;15.43;;;8.97;;
69569;SDS011;56781;42.292;23.146;2023-09-18T09:45:35;15.07;;;9.27;;
69569;SDS011;56781;42.292;23.146;2023-09-18T09:48:03;18.85;;;9.30;;
69569;SDS011;56781;42.292;23.146;2023-09-18T09:50:33;15.23;;;8.90;;
69569;SDS011;56781;42.292;23.146;2023-09-18T09:53:13;14.90;;;9.48;;
69569;SDS011;56781;42.292;23.146;2023-09-18T09:55:41;14.70;;;8.70;;
69569;SDS011;56781;42.292;23.146;2023-09-18T09:58:08;13.52;;;8.40;;
69569;SDS011;56781;42.292;23.146;2023-09-18T10:03:13;14.55;;;8.73;;
69569;SDS011;56781;42.292;23.146;2023-09-18T10:05:43;10.63;;;6.68;;
69569;SDS011;56781;42.292;23.146;2023-09-18T10:08:12;16.90;;;7.63;;
69569;SDS011;56781;42.292;23.146;2023-09-18T10:10:46;12.32;;;6.50;;
69569;SDS011;56781;42.292;23.146;2023-09-18T10:13:17;10.90;;;5.57;;
69569;SDS011;56781;42.292;23.146;2023-09-18T10:15:50;7.53;;;4.75;;
69569;SDS011;56781;42.292;23.146;2023-09-18T10:18:37;7.50;;;4.45;;
69569;SDS011;56781;42.292;23.146;2023-09-18T10:21:26;12.97;;;4.93;;
69569;SDS011;56781;42.292;23.146;2023-09-18T10:29:20;14.05;;;7.10;;
69569;SDS011;56781;42.292;23.146;2023-09-18T10:31:51;7.43;;;4.80;;
69569;SDS011;56781;42.292;23.146;2023-09-18T10:34:21;10.20;;;5.73;;
69569;SDS011;56781;42.292;23.146;2023-09-18T10:36:51;12.77;;;5.93;;
69569;SDS011;56781;42.292;23.146;2023-09-18T10:39:26;19.00;;;8.18;;
69569;SDS011;56781;42.292;23.146;2023-09-18T10:41:56;10.18;;;5.78;;
69569;SDS011;56781;42.292;23.146;2023-09-18T10:44:28;8.55;;;4.70;;
69569;SDS011;56781;42.292;23.146;2023-09-18T10:46:58;8.87;;;4.63;;
69569;SDS011;56781;42.292;23.146;2023-09-18T10:49:28;9.60;;;4.03;;
69569;SDS011;56781;42.292;23.146;2023-09-18T10:51:56;8.38;;;4.38;;
69569;SDS011;56781;42.292;23.146;2023-09-18T10:54:25;8.27;;;3.92;;
69569;SDS011;56781;42.292;23.146;2023-09-18T10:56:53;7.95;;;4.45;;
69569;SDS011;56781;42.292;23.146;2023-09-18T10:59:25;8.33;;;4.77;;
69569;SDS011;56781;42.292;23.146;2023-09-18T11:01:54;6.85;;;4.10;;
69569;SDS011;56781;42.292;23.146;2023-09-18T11:04:23;9.63;;;6.00;;
69569;SDS011;56781;42.292;23.146;2023-09-18T11:17:30;6.88;;;3.78;;
69569;SDS011;56781;42.292;23.146;2023-09-18T11:22:39;8.60;;;4.95;;
69569;SDS011;56781;42.292;23.146;2023-09-18T11:28:15;8.18;;;4.85;;
69569;SDS011;56781;42.292;23.146;2023-09-18T11:30:56;7.15;;;4.03;;
69569;SDS011;56781;42.292;23.146;2023-09-18T11:33:35;6.35;;;3.75;;
69569;SDS011;56781;42.292;23.146;2023-09-18T11:36:05;8.50;;;4.80;;
69569;SDS011;56781;42.292;23.146;2023-09-18T11:38:51;7.63;;;4.40;;
69569;SDS011;56781;42.292;23.146;2023-09-18T11:41:35;7.55;;;4.50;;
69569;SDS011;56781;42.292;23.146;2023-09-18T11:46:47;6.82;;;4.05;;
69569;SDS011;56781;42.292;23.146;2023-09-18T11:49:21;8.07;;;4.55;;
69569;SDS011;56781;42.292;23.146;2023-09-18T11:51:50;7.30;;;4.10;;
69569;SDS011;56781;42.292;23.146;2023-09-18T11:54:17;6.95;;;4.13;;
69569;SDS011;56781;42.292;23.146;2023-09-18T11:56:45;6.38;;;4.00;;
69569;SDS011;56781;42.292;23.146;2023-09-18T11:59:12;9.98;;;4.95;;
69569;SDS011;56781;42.292;23.146;2023-09-18T12:01:39;7.70;;;4.93;;
69569;SDS011;56781;42.292;23.146;2023-09-18T12:04:07;7.37;;;4.53;;
69569;SDS011;56781;42.292;23.146;2023-09-18T12:06:35;9.40;;;4.53;;
69569;SDS011;56781;42.292;23.146;2023-09-18T12:09:03;7.88;;;4.85;;
69569;SDS011;56781;42.292;23.146;2023-09-18T12:11:30;8.25;;;4.70;;
69569;SDS011;56781;42.292;23.146;2023-09-18T12:13:57;7.85;;;4.88;;
69569;SDS011;56781;42.292;23.146;2023-09-18T12:16:24;8.83;;;4.97;;
69569;SDS011;56781;42.292;23.146;2023-09-18T12:18:52;7.18;;;4.90;;
69569;SDS011;56781;42.292;23.146;2023-09-18T12:21:19;6.43;;;4.60;;
69569;SDS011;56781;42.292;23.146;2023-09-18T12:23:46;7.05;;;4.70;;
69569;SDS011;56781;42.292;23.146;2023-09-18T12:26:14;8.18;;;5.13;;
69569;SDS011;56781;42.292;23.146;2023-09-18T12:28:42;6.67;;;5.20;;
69569;SDS011;56781;42.292;23.146;2023-09-18T12:31:13;6.85;;;4.80;;
69569;SDS011;56781;42.292;23.146;2023-09-18T12:33:42;9.63;;;4.90;;
69569;SDS011;56781;42.292;23.146;2023-09-18T12:36:18;8.20;;;4.80;;
69569;SDS011;56781;42.292;23.146;2023-09-18T12:38:56;9.35;;;5.28;;
69569;SDS011;56781;42.292;23.146;2023-09-18T12:41:24;7.20;;;4.67;;
69569;SDS011;56781;42.292;23.146;2023-09-18T12:43:58;7.95;;;5.15;;
69569;SDS011;56781;42.292;23.146;2023-09-18T12:46:25;7.22;;;5.10;;
69569;SDS011;56781;42.292;23.146;2023-09-18T12:48:53;7.22;;;5.10;;
69569;SDS011;56781;42.292;23.146;2023-09-18T12:51:28;7.22;;;4.90;;
69569;SDS011;56781;42.292;23.146;2023-09-18T12:53:59;7.13;;;5.13;;
69569;SDS011;56781;42.292;23.146;2023-09-18T12:56:39;10.15;;;5.18;;
69569;SDS011;56781;42.292;23.146;2023-09-18T12:59:07;7.95;;;5.00;;
69569;SDS011;56781;42.292;23.146;2023-09-18T13:01:45;7.28;;;5.10;;
69569;SDS011;56781;42.292;23.146;2023-09-18T13:04:14;6.45;;;4.90;;
69569;SDS011;56781;42.292;23.146;2023-09-18T13:06:42;7.30;;;5.20;;
69569;SDS011;56781;42.292;23.146;2023-09-18T13:09:18;9.10;;;5.30;;
69569;SDS011;56781;42.292;23.146;2023-09-18T13:11:53;6.63;;;5.18;;
69569;SDS011;56781;42.292;23.146;2023-09-18T13:14:24;7.18;;;4.75;;
69569;SDS011;56781;42.292;23.146;2023-09-18T13:16:52;6.55;;;4.72;;
69569;SDS011;56781;42.292;23.146;2023-09-18T13:19:19;7.70;;;5.10;;
69569;SDS011;56781;42.292;23.146;2023-09-18T13:21:47;6.65;;;4.90;;
69569;SDS011;56781;42.292;23.146;2023-09-18T13:24:30;6.63;;;5.00;;
69569;SDS011;56781;42.292;23.146;2023-09-18T13:26:58;7.38;;;5.25;;
69569;SDS011;56781;42.292;23.146;2023-09-18T13:29:28;6.78;;;5.00;;
69569;SDS011;56781;42.292;23.146;2023-09-18T13:31:55;6.23;;;4.97;;
69569;SDS011;56781;42.292;23.146;2023-09-18T13:34:23;8.02;;;5.13;;
69569;SDS011;56781;42.292;23.146;2023-09-18T13:36:50;9.35;;;5.30;;
69569;SDS011;56781;42.292;23.146;2023-09-18T13:39:17;7.70;;;5.30;;
69569;SDS011;56781;42.292;23.146;2023-09-18T13:41:44;9.95;;;6.22;;
69569;SDS011;56781;42.292;23.146;2023-09-18T13:44:12;7.37;;;5.10;;
69569;SDS011;56781;42.292;23.146;2023-09-18T13:46:39;7.53;;;5.00;;
69569;SDS011;56781;42.292;23.146;2023-09-18T13:49:08;6.13;;;4.90;;
69569;SDS011;56781;42.292;23.146;2023-09-18T13:51:35;8.45;;;5.93;;
69569;SDS011;56781;42.292;23.146;2023-09-18T13:54:02;8.57;;;5.57;;
69569;SDS011;56781;42.292;23.146;2023-09-18T13:56:30;7.00;;;5.07;;
69569;SDS011;56781;42.292;23.146;2023-09-18T13:58:57;8.82;;;4.90;;
69569;SDS011;56781;42.292;23.146;2023-09-18T14:01:24;9.20;;;5.40;;
69569;SDS011;56781;42.292;23.146;2023-09-18T14:03:53;6.78;;;5.00;;
69569;SDS011;56781;42.292;23.146;2023-09-18T14:06:21;8.02;;;5.20;;
69569;SDS011;56781;42.292;23.146;2023-09-18T14:08:49;7.77;;;5.10;;
69569;SDS011;56781;42.292;23.146;2023-09-18T14:11:16;7.43;;;5.30;;
69569;SDS011;56781;42.292;23.146;2023-09-18T14:13:44;6.97;;;4.88;;
69569;SDS011;56781;42.292;23.146;2023-09-18T14:16:12;7.80;;;5.20;;
69569;SDS011;56781;42.292;23.146;2023-09-18T14:18:41;7.10;;;4.75;;
69569;SDS011;56781;42.292;23.146;2023-09-18T14:21:09;6.83;;;4.97;;
69569;SDS011;56781;42.292;23.146;2023-09-18T14:23:36;7.18;;;4.75;;
69569;SDS011;56781;42.292;23.146;2023-09-18T14:26:04;7.15;;;4.90;;
69569;SDS011;56781;42.292;23.146;2023-09-18T14:28:32;8.48;;;4.97;;
69569;SDS011;56781;42.292;23.146;2023-09-18T14:31:02;6.68;;;5.22;;
69569;SDS011;56781;42.292;23.146;2023-09-18T14:33:30;7.70;;;5.00;;
69569;SDS011;56781;42.292;23.146;2023-09-18T14:35:57;8.98;;;5.50;;
69569;SDS011;56781;42.292;23.146;2023-09-18T14:38:24;9.50;;;4.93;;
69569;SDS011;56781;42.292;23.146;2023-09-18T14:40:51;6.85;;;4.70;;
69569;SDS011;56781;42.292;23.146;2023-09-18T14:43:18;7.75;;;5.03;;
69569;SDS011;56781;42.292;23.146;2023-09-18T14:45:45;7.20;;;5.00;;
69569;SDS011;56781;42.292;23.146;2023-09-18T14:48:12;7.30;;;5.50;;
69569;SDS011;56781;42.292;23.146;2023-09-18T14:50:40;7.72;;;5.05;;
69569;SDS011;56781;42.292;23.146;2023-09-18T14:53:07;8.98;;;5.30;;
69569;SDS011;56781;42.292;23.146;2023-09-18T14:55:35;7.50;;;5.10;;
69569;SDS011;56781;42.292;23.146;2023-09-18T14:58:03;7.23;;;4.93;;
69569;SDS011;56781;42.292;23.146;2023-09-18T15:00:30;8.73;;;5.10;;